Time;durP1;ratioP1;P1;durP2;ratioP2;P2;SDS_P1;SDS_P2;PMS_P1;PMS_P2;Temp;Humidity;BMP_temperature;BMP_pressure;BME280_temperature;BME280_humidity;BME280_pressure;Samples;Min_cycle;Max_cycle;Signal;HPM_P1;HPM_P2
2022/10/02 00:01:56;;;;;;;20.00;2.40;;;16.50;91.90;;;;;;10343550;28;20077;-38
2022/10/02 00:07:05;;;;;;;16.90;2.38;;;16.40;91.80;;;;;;10358670;28;20086;-39
2022/10/02 00:12:10;;;;;;;22.63;2.70;;;16.60;91.90;;;;;;10366002;28;20050;-41
2022/10/02 00:17:18;;;;;;;18.45;2.72;;;16.60;91.50;;;;;;10343178;28;20116;-39
2022/10/02 00:22:39;;;;;;;25.13;4.00;;;16.70;91.80;;;;;;10343304;28;20485;-37
2022/10/02 00:27:59;;;;;;;21.10;2.80;;;16.80;90.00;;;;;;10371576;28;20136;-39
2022/10/02 00:33:12;;;;;;;20.35;3.17;;;16.50;93.00;;;;;;10337847;28;20046;-43
2022/10/02 00:38:27;;;;;;;11.45;1.52;;;16.70;92.20;;;;;;10350547;28;20125;-38
2022/10/02 00:43:34;;;;;;;21.50;2.67;;;16.80;90.80;;;;;;10369728;28;20490;-39
2022/10/02 00:48:50;;;;;;;13.07;2.53;;;16.20;94.10;;;;;;10350262;28;20105;-39
2022/10/02 00:54:02;;;;;;;14.77;1.77;;;16.60;92.60;;;;;;10358104;28;20101;-40
2022/10/02 00:59:31;;;;;;;14.25;1.85;;;16.60;92.20;;;;;;10355101;28;20060;-38
2022/10/02 01:04:35;;;;;;;14.70;2.28;;;16.80;91.50;;;;;;10347800;28;20129;-38
2022/10/02 01:09:40;;;;;;;27.13;4.22;;;16.50;92.60;;;;;;10362219;28;20507;-40
2022/10/02 01:14:42;;;;;;;9.95;1.65;;;16.50;93.00;;;;;;10356794;28;20038;-40
2022/10/02 01:19:44;;;;;;;9.45;1.83;;;17.20;88.80;;;;;;10361257;28;20100;-39
2022/10/02 01:24:51;;;;;;;22.95;2.53;;;16.90;91.00;;;;;;10335453;28;20042;-40
2022/10/02 01:29:56;;;;;;;11.05;2.25;;;16.80;92.20;;;;;;10353312;28;20808;-40
2022/10/02 01:34:59;;;;;;;20.45;3.17;;;17.30;90.50;;;;;;10349012;28;20116;-38
2022/10/02 01:40:07;;;;;;;11.95;1.60;;;16.60;93.00;;;;;;10356573;28;20057;-39
2022/10/02 01:45:10;;;;;;;10.82;2.03;;;16.80;91.60;;;;;;10352402;28;20552;-40
2022/10/02 01:50:17;;;;;;;12.00;3.17;;;16.90;91.60;;;;;;10367056;28;20125;-40
2022/10/02 01:55:31;;;;;;;15.07;2.15;;;16.90;90.60;;;;;;10358932;28;20060;-38
2022/10/02 02:00:46;;;;;;;15.88;2.03;;;16.50;92.90;;;;;;10354679;28;20070;-38
2022/10/02 02:05:53;;;;;;;19.75;2.33;;;16.80;91.80;;;;;;10348054;28;20098;-39
2022/10/02 02:11:08;;;;;;;8.77;1.92;;;16.30;93.10;;;;;;10334564;28;20101;-38
2022/10/02 02:16:19;;;;;;;25.70;2.70;;;16.50;92.50;;;;;;10353164;28;20105;-39
2022/10/02 02:21:26;;;;;;;9.55;1.90;;;16.40;93.10;;;;;;10380767;28;21367;-39
2022/10/02 02:26:32;;;;;;;12.95;2.08;;;16.70;91.00;;;;;;10346370;28;20050;-40
2022/10/02 02:31:39;;;;;;;15.70;2.13;;;16.70;90.80;;;;;;10363496;28;20077;-38
2022/10/02 02:36:46;;;;;;;12.93;2.72;;;16.40;92.30;;;;;;10359845;28;20042;-40
2022/10/02 02:41:53;;;;;;;12.88;1.75;;;16.20;91.80;;;;;;10372665;28;20077;-38
2022/10/02 02:47:05;;;;;;;15.75;2.25;;;16.50;91.60;;;;;;10366682;28;20900;-39
2022/10/02 02:52:13;;;;;;;21.92;2.65;;;16.60;90.60;;;;;;10346865;28;20137;-39
2022/10/02 02:57:23;;;;;;;14.70;2.10;;;16.50;90.90;;;;;;10349253;28;20050;-40
2022/10/02 03:02:24;;;;;;;12.25;2.40;;;16.20;92.20;;;;;;10353273;28;20597;-39
2022/10/02 03:07:26;;;;;;;14.03;1.60;;;16.30;91.70;;;;;;10350362;28;20136;-39
2022/10/02 03:12:40;;;;;;;10.38;1.42;;;16.80;90.50;;;;;;10354906;28;20137;-40
2022/10/02 03:18:01;;;;;;;10.27;1.13;;;16.60;90.80;;;;;;10334759;28;20082;-40
2022/10/02 03:23:08;;;;;;;11.07;1.42;;;17.20;89.40;;;;;;10376397;28;20065;-41
2022/10/02 03:28:16;;;;;;;14.90;1.85;;;16.90;90.10;;;;;;10348443;28;20137;-40
2022/10/02 03:33:19;;;;;;;10.43;2.20;;;16.90;90.90;;;;;;10352405;28;20046;-38
2022/10/02 03:38:23;;;;;;;19.38;2.28;;;17.00;90.00;;;;;;10358104;28;20049;-41
2022/10/02 03:43:29;;;;;;;15.35;2.80;;;16.00;94.00;;;;;;10355953;28;20057;-38
2022/10/02 03:48:31;;;;;;;16.42;2.97;;;15.90;94.10;;;;;;10352320;28;20136;-36
2022/10/02 03:53:34;;;;;;;15.77;1.80;;;16.40;92.60;;;;;;10345776;28;20232;-39
2022/10/02 03:58:41;;;;;;;20.48;2.78;;;16.30;92.20;;;;;;10356796;28;20049;-38
2022/10/02 04:03:49;;;;;;;12.00;2.80;;;16.10;93.00;;;;;;10355452;28;20282;-38
2022/10/02 04:08:55;;;;;;;22.05;1.83;;;16.00;93.80;;;;;;10348284;28;20145;-39
2022/10/02 04:14:05;;;;;;;12.80;1.60;;;16.10;93.50;;;;;;10334295;28;20085;-37
2022/10/02 04:19:13;;;;;;;30.65;4.18;;;16.40;91.70;;;;;;10344690;28;20089;-40
2022/10/02 04:24:22;;;;;;;7.70;1.75;;;16.60;92.10;;;;;;10358140;28;20132;-39
2022/10/02 04:29:31;;;;;;;11.95;1.92;;;16.70;91.10;;;;;;10351547;28;20104;-37
2022/10/02 04:34:33;;;;;;;20.58;2.17;;;16.40;91.90;;;;;;10342568;28;20038;-38
2022/10/02 04:39:47;;;;;;;13.90;1.43;;;16.00;93.10;;;;;;10343447;28;20674;-39
2022/10/02 04:45:12;;;;;;;8.82;1.15;;;16.40;91.50;;;;;;10343860;28;20050;-38
2022/10/02 04:50:36;;;;;;;10.77;1.88;;;16.40;91.40;;;;;;10358882;28;20057;-39
2022/10/02 04:55:51;;;;;;;18.52;1.90;;;16.10;91.80;;;;;;10363868;28;20038;-40
2022/10/02 05:01:04;;;;;;;9.60;1.38;;;16.30;91.60;;;;;;10357051;28;20458;-39
2022/10/02 05:06:26;;;;;;;17.27;2.10;;;17.00;90.00;;;;;;10352718;28;20466;-38
2022/10/02 05:11:55;;;;;;;7.53;1.67;;;16.20;91.50;;;;;;10354184;28;20043;-39
2022/10/02 05:17:16;;;;;;;13.98;2.05;;;16.30;90.80;;;;;;10321548;28;20118;-39
2022/10/02 05:22:34;;;;;;;9.18;1.27;;;16.20;91.30;;;;;;10355776;28;20427;-40
2022/10/02 05:27:58;;;;;;;6.45;1.35;;;16.60;90.30;;;;;;10353310;28;20047;-38
2022/10/02 05:33:40;;;;;;;4.28;1.08;;;16.90;88.80;;;;;;10346035;28;20144;-39
2022/10/02 05:38:56;;;;;;;5.53;1.40;;;16.90;88.40;;;;;;10334029;28;20074;-35
2022/10/02 05:44:04;;;;;;;8.10;2.10;;;17.10;87.20;;;;;;10371175;28;20078;-38
2022/10/02 05:49:16;;;;;;;4.70;0.90;;;16.60;90.00;;;;;;10365094;28;20046;-38
2022/10/02 05:54:27;;;;;;;11.02;1.67;;;17.80;83.60;;;;;;10385743;28;20048;-40
2022/10/02 05:59:36;;;;;;;10.07;1.98;;;16.50;89.60;;;;;;10383078;28;20107;-38
2022/10/02 06:04:46;;;;;;;10.65;1.92;;;16.50;90.20;;;;;;10382253;28;20072;-39
2022/10/02 06:09:52;;;;;;;8.27;1.23;;;16.80;87.80;;;;;;10352993;28;20086;-39
2022/10/02 06:15:00;;;;;;;20.23;2.90;;;17.20;86.00;;;;;;10359870;28;20444;-40
2022/10/02 06:20:14;;;;;;;14.93;2.00;;;16.60;87.50;;;;;;10382156;28;20057;-37
2022/10/02 06:25:23;;;;;;;14.25;2.15;;;16.40;90.00;;;;;;10360389;28;20534;-39
2022/10/02 06:30:25;;;;;;;13.30;1.70;;;16.10;90.40;;;;;;10366720;28;20054;-39
2022/10/02 06:35:41;;;;;;;8.20;1.50;;;16.30;90.20;;;;;;10369573;28;20501;-40
2022/10/02 06:40:49;;;;;;;16.33;1.90;;;16.70;88.30;;;;;;10365464;28;20115;-40
2022/10/02 06:46:00;;;;;;;18.00;1.65;;;16.20;91.10;;;;;;10355101;28;20050;-39
2022/10/02 06:51:11;;;;;;;5.82;1.42;;;16.30;90.30;;;;;;10350694;28;20133;-39
2022/10/02 06:56:26;;;;;;;13.15;1.95;;;16.20;90.90;;;;;;10350466;28;20041;-37
2022/10/02 07:01:41;;;;;;;6.40;1.70;;;16.60;89.30;;;;;;10345382;28;20078;-39
2022/10/02 07:07:04;;;;;;;8.85;1.73;;;16.70;88.60;;;;;;10352437;28;20082;-38
2022/10/02 07:12:23;;;;;;;12.05;3.05;;;17.10;86.30;;;;;;10363570;28;20053;-38
2022/10/02 07:17:39;;;;;;;12.20;2.67;;;17.20;86.00;;;;;;10351514;28;20057;-40
2022/10/02 07:22:56;;;;;;;9.55;2.42;;;17.10;87.30;;;;;;10355463;28;20129;-40
2022/10/02 07:28:09;;;;;;;11.73;2.67;;;17.20;86.10;;;;;;10351232;28;20162;-40
2022/10/02 07:33:20;;;;;;;14.07;4.72;;;17.10;87.40;;;;;;10346936;28;20053;-40
2022/10/02 07:38:47;;;;;;;14.70;3.70;;;17.60;84.50;;;;;;10351772;28;20559;-40
2022/10/02 07:43:58;;;;;;;19.70;3.45;;;17.40;85.90;;;;;;10360879;28;20065;-39
2022/10/02 07:49:11;;;;;;;15.60;2.85;;;17.20;87.10;;;;;;10342509;28;20108;-38
2022/10/02 07:54:32;;;;;;;16.92;2.72;;;16.80;88.80;;;;;;10354995;28;20048;-38
2022/10/02 07:59:35;;;;;;;16.58;3.25;;;17.00;87.80;;;;;;10341752;28;20431;-39
2022/10/02 08:04:38;;;;;;;15.02;2.20;;;17.00;87.80;;;;;;10356691;28;20137;-38
2022/10/02 08:09:43;;;;;;;;;;;17.20;88.10;;;;;;10345564;28;20440;-38
2022/10/02 08:14:48;;;;;;;18.35;2.50;;;17.20;88.00;;;;;;10348699;28;20386;-39
2022/10/02 08:19:52;;;;;;;11.18;2.20;;;17.10;87.40;;;;;;10351054;28;20061;-37
2022/10/02 08:24:58;;;;;;;12.57;2.60;;;17.50;86.10;;;;;;10337267;28;20165;-39
2022/10/02 08:30:05;;;;;;;12.25;2.63;;;17.80;85.10;;;;;;10345892;28;20049;-39
2022/10/02 08:35:13;;;;;;;13.02;1.92;;;17.50;84.90;;;;;;10345218;28;20096;-39
2022/10/02 08:40:51;;;;;;;10.27;1.83;;;17.60;85.10;;;;;;10361663;28;20050;-39
2022/10/02 08:46:28;;;;;;;14.27;2.05;;;18.10;83.30;;;;;;10381000;28;20041;-39
2022/10/02 08:52:14;;;;;;;12.50;2.13;;;17.80;84.30;;;;;;10368888;28;20061;-39
2022/10/02 08:57:51;;;;;;;14.85;2.88;;;17.70;85.20;;;;;;10344238;28;20541;-42
2022/10/02 09:03:44;;;;;;;8.85;1.48;;;17.70;84.80;;;;;;10355954;28;20045;-37
2022/10/02 09:09:13;;;;;;;18.02;2.78;;;17.50;85.10;;;;;;10347581;28;20053;-38
2022/10/02 09:14:43;;;;;;;9.50;2.75;;;17.90;82.70;;;;;;10350976;28;20053;-38
2022/10/02 09:20:12;;;;;;;14.73;3.13;;;17.60;85.20;;;;;;10366654;28;20061;-38
2022/10/02 09:25:34;;;;;;;10.57;2.88;;;18.00;82.40;;;;;;10353952;28;20614;-39
2022/10/02 09:31:14;;;;;;;15.02;3.30;;;18.40;81.10;;;;;;10346519;28;20042;-38
2022/10/02 09:36:47;;;;;;;12.25;2.55;;;18.00;81.60;;;;;;10370572;28;20069;-38
2022/10/02 09:42:24;;;;;;;9.82;2.17;;;18.20;80.70;;;;;;10375674;28;20077;-38
2022/10/02 09:48:03;;;;;;;5.43;1.20;;;18.10;81.20;;;;;;10366291;28;20104;-39
2022/10/02 09:53:43;;;;;;;20.52;2.78;;;18.20;81.50;;;;;;10354115;28;20078;-39
2022/10/02 09:59:15;;;;;;;12.38;2.92;;;18.10;82.40;;;;;;10346460;28;20057;-39
2022/10/02 10:04:55;;;;;;;13.18;2.42;;;18.30;81.10;;;;;;10336164;28;20053;-39
2022/10/02 10:10:19;;;;;;;10.80;1.67;;;18.50;79.90;;;;;;10347997;28;20089;-39
2022/10/02 10:16:01;;;;;;;7.47;1.58;;;18.90;78.30;;;;;;10344347;28;20058;-39
2022/10/02 10:21:41;;;;;;;7.63;2.10;;;18.70;77.70;;;;;;10298157;28;20054;-38
2022/10/02 10:27:02;;;;;;;13.52;1.48;;;18.70;78.50;;;;;;10311214;28;20082;-44
2022/10/02 10:32:55;;;;;;;6.40;2.70;;;18.50;79.60;;;;;;10305952;28;20121;-32
2022/10/02 10:43:55;;;;;;;13.52;2.22;;;18.60;77.50;;;;;;10318535;28;19921;-39
2022/10/02 10:49:23;;;;;;;14.23;2.92;;;18.60;79.00;;;;;;10309431;28;20113;-39
2022/10/02 10:54:55;;;;;;;19.65;3.50;;;18.40;78.90;;;;;;10305656;28;20118;-41
2022/10/02 11:00:12;;;;;;;14.77;3.03;;;18.40;78.00;;;;;;10320847;28;20057;-41
2022/10/02 11:05:36;;;;;;;17.77;2.13;;;18.50;78.10;;;;;;10301890;28;20123;-39
2022/10/02 11:10:52;;;;;;;11.77;2.22;;;18.20;80.10;;;;;;10311905;28;20140;-40
2022/10/02 11:16:13;;;;;;;11.07;3.15;;;18.70;77.60;;;;;;10328301;28;20092;-39
2022/10/02 11:21:50;;;;;;;9.50;2.45;;;18.50;79.00;;;;;;10360631;28;20563;-38
2022/10/02 11:27:21;;;;;;;10.32;2.42;;;18.90;77.30;;;;;;10356585;28;20084;-40
2022/10/02 11:33:02;;;;;;;12.57;2.03;;;19.60;74.90;;;;;;10352465;28;20064;-37
2022/10/02 11:38:37;;;;;;;9.60;2.22;;;18.40;78.60;;;;;;10362755;28;20077;-34
2022/10/02 11:43:57;;;;;;;12.82;2.13;;;19.20;75.70;;;;;;10339032;28;20042;-39
2022/10/02 11:49:25;;;;;;;7.53;2.17;;;18.90;75.00;;;;;;10345876;28;20058;-38
2022/10/02 11:54:48;;;;;;;7.68;1.50;;;18.90;78.50;;;;;;10346637;28;20472;-38
2022/10/02 12:00:05;;;;;;;12.88;2.20;;;19.20;77.40;;;;;;10340675;28;20054;-39
2022/10/02 12:05:20;;;;;;;14.30;2.25;;;19.10;78.10;;;;;;10360335;28;20049;-40
2022/10/02 12:10:41;;;;;;;4.68;1.83;;;19.30;76.90;;;;;;10344882;28;20038;-38
2022/10/02 12:15:55;;;;;;;12.20;1.65;;;19.30;77.10;;;;;;10339614;28;20128;-40
2022/10/02 12:26:58;;;;;;;13.98;2.92;;;18.90;77.60;;;;;;10244484;28;20055;-39
2022/10/02 12:32:12;;;;;;;7.22;1.42;;;19.40;74.70;;;;;;10340998;28;20056;-39
2022/10/02 12:37:22;;;;;;;7.95;1.88;;;20.10;73.60;;;;;;10378298;28;20061;-39
2022/10/02 12:42:53;;;;;;;10.85;1.70;;;20.20;71.70;;;;;;10369787;28;20073;-39
2022/10/02 12:48:14;;;;;;;6.50;1.58;;;19.80;73.20;;;;;;10362319;28;20100;-38
2022/10/02 12:53:50;;;;;;;10.90;2.17;;;19.70;72.60;;;;;;10362134;28;20042;-40
2022/10/02 12:59:04;;;;;;;18.90;1.70;;;19.80;72.60;;;;;;10378285;28;20399;-39
2022/10/02 13:04:45;;;;;;;5.07;1.20;;;20.10;69.00;;;;;;10369220;28;20562;-40
2022/10/02 13:09:57;;;;;;;10.20;1.95;;;20.10;72.60;;;;;;10352662;28;20137;-40
2022/10/02 13:15:22;;;;;;;10.02;1.63;;;20.20;71.80;;;;;;10366418;28;20129;-41
2022/10/02 13:20:37;;;;;;;6.93;1.65;;;20.20;71.40;;;;;;10365259;28;20041;-41
2022/10/02 13:25:56;;;;;;;5.28;1.50;;;20.80;70.00;;;;;;10350395;28;20064;-38
2022/10/02 13:31:10;;;;;;;11.75;1.48;;;20.20;67.40;;;;;;10356430;28;20495;-41
2022/10/02 13:36:19;;;;;;;10.25;1.63;;;20.40;68.10;;;;;;10369425;28;20065;-39
2022/10/02 13:41:35;;;;;;;8.73;1.30;;;20.30;68.40;;;;;;10364518;28;20038;-42
2022/10/02 13:46:52;;;;;;;7.60;1.60;;;20.60;70.50;;;;;;10362986;28;20133;-39
2022/10/02 13:52:01;;;;;;;7.13;1.70;;;20.90;70.20;;;;;;10358452;28;20145;-39
2022/10/02 13:57:11;;;;;;;11.45;1.60;;;21.00;69.60;;;;;;10357694;28;20042;-40
2022/10/02 14:02:27;;;;;;;8.80;1.73;;;20.40;69.50;;;;;;10367023;28;20134;-39
2022/10/02 14:07:47;;;;;;;10.73;1.90;;;21.30;66.80;;;;;;10370637;28;20132;-40
2022/10/02 14:13:02;;;;;;;8.52;1.45;;;21.50;67.50;;;;;;10362865;28;20096;-40
2022/10/02 14:18:35;;;;;;;7.65;1.52;;;21.70;65.70;;;;;;10353812;28;20097;-39
2022/10/02 14:23:57;;;;;;;9.30;1.52;;;21.80;65.40;;;;;;10341646;28;20061;-40
2022/10/02 14:29:16;;;;;;;11.48;2.55;;;20.70;65.60;;;;;;10368678;28;20185;-38
2022/10/02 14:34:46;;;;;;;6.55;1.10;;;21.20;68.70;;;;;;10355882;28;20054;-39
2022/10/02 14:39:50;;;;;;;8.68;1.52;;;21.70;68.00;;;;;;10375646;28;20077;-40
2022/10/02 14:45:20;;;;;;;11.02;1.65;;;21.60;66.30;;;;;;10362164;28;20049;-39
2022/10/02 14:50:40;;;;;;;10.27;3.75;;;21.40;64.40;;;;;;10356744;28;20054;-40
2022/10/02 14:56:08;;;;;;;9.10;1.70;;;21.80;63.90;;;;;;10360207;28;20076;-39
2022/10/02 15:01:21;;;;;;;7.63;1.60;;;21.90;64.10;;;;;;10357240;28;20128;-39
2022/10/02 15:06:42;;;;;;;10.27;1.45;;;22.20;61.60;;;;;;10357486;28;20510;-40
2022/10/02 15:11:58;;;;;;;6.45;1.27;;;22.50;62.70;;;;;;10358071;28;20153;-40
2022/10/02 15:22:28;;;;;;;15.05;1.88;;;22.50;61.80;;;;;;10353560;28;20050;-39
2022/10/02 15:27:42;;;;;;;5.45;1.02;;;22.50;58.90;;;;;;10353414;28;20056;-37
2022/10/02 15:32:55;;;;;;;5.32;1.10;;;22.70;58.10;;;;;;10338359;28;20171;-39
2022/10/02 15:38:21;;;;;;;3.70;1.33;;;22.50;60.50;;;;;;10344232;28;20567;-41
2022/10/02 15:43:43;;;;;;;9.23;1.40;;;22.00;64.40;;;;;;10364485;28;20081;-38
2022/10/02 15:48:58;;;;;;;7.30;1.40;;;22.20;63.30;;;;;;10361882;28;20072;-40
2022/10/02 15:54:10;;;;;;;15.65;1.45;;;22.40;60.50;;;;;;10363661;28;20045;-39
2022/10/02 15:59:37;;;;;;;;;;;22.20;60.50;;;;;;10356590;28;20068;-40
2022/10/02 16:04:51;;;;;;;8.98;1.38;;;22.00;63.50;;;;;;10341162;28;20004;-39
2022/10/02 16:10:07;;;;;;;12.38;1.70;;;22.50;58.90;;;;;;10335216;28;20046;-40
2022/10/02 16:15:21;;;;;;;8.77;1.40;;;22.50;57.20;;;;;;10341269;28;20536;-38
2022/10/02 16:20:37;;;;;;;7.90;1.35;;;22.60;60.00;;;;;;10355866;28;20070;-39
2022/10/02 16:25:55;;;;;;;13.32;1.55;;;21.90;63.20;;;;;;10359678;28;20513;-35
2022/10/02 16:31:16;;;;;;;6.07;1.40;;;21.00;64.30;;;;;;10368711;28;20046;-40
2022/10/02 16:36:43;;;;;;;10.85;1.63;;;21.70;64.30;;;;;;10370657;28;20049;-39
2022/10/02 16:41:59;;;;;;;14.30;2.22;;;21.40;67.70;;;;;;10354128;28;20814;-39
2022/10/02 16:47:11;;;;;;;15.82;3.10;;;21.10;67.90;;;;;;10371070;28;20057;-41
2022/10/02 16:52:22;;;;;;;12.77;1.67;;;21.30;67.60;;;;;;10371077;28;20057;-41
2022/10/02 16:57:48;;;;;;;13.57;2.15;;;21.90;67.10;;;;;;10357550;28;20042;-42
2022/10/02 17:02:55;;;;;;;15.18;2.28;;;21.10;67.50;;;;;;10364835;28;20049;-45
2022/10/02 17:08:05;;;;;;;11.25;2.10;;;20.40;68.40;;;;;;10361385;28;20063;-43
2022/10/02 17:13:25;;;;;;;16.17;2.50;;;20.70;69.60;;;;;;10370279;28;20099;-40
2022/10/02 17:18:38;;;;;;;18.05;2.00;;;21.40;67.80;;;;;;10357705;28;20045;-39
2022/10/02 17:29:11;;;;;;;10.70;1.88;;;20.80;70.00;;;;;;10348015;28;20080;-41
2022/10/02 17:34:19;;;;;;;15.82;1.83;;;20.40;69.70;;;;;;10347985;28;20409;-41
2022/10/02 17:39:50;;;;;;;8.25;1.80;;;20.70;71.80;;;;;;10348332;28;20046;-40
2022/10/02 17:45:00;;;;;;;13.65;1.80;;;20.60;65.00;;;;;;10364405;28;20041;-39
2022/10/02 17:50:18;;;;;;;14.85;1.65;;;20.00;67.00;;;;;;10359681;28;20088;-42
2022/10/02 18:01:12;;;;;;;11.82;1.70;;;19.30;68.60;;;;;;10383615;28;20045;-40
2022/10/02 18:06:24;;;;;;;7.30;1.63;;;20.70;72.10;;;;;;10352060;28;20134;-40
2022/10/02 18:12:00;;;;;;;10.05;1.63;;;20.10;72.10;;;;;;10335281;28;20101;-43
2022/10/02 18:17:14;;;;;;;10.55;1.52;;;21.00;69.80;;;;;;10361391;28;20723;-40
2022/10/02 18:22:39;;;;;;;22.55;2.38;;;21.30;68.60;;;;;;10377908;28;20487;-39
2022/10/02 18:28:10;;;;;;;9.52;1.38;;;20.80;69.10;;;;;;10357176;28;20069;-41
2022/10/02 18:33:32;;;;;;;8.13;1.05;;;20.90;67.50;;;;;;10354052;28;20084;-39
2022/10/02 18:38:51;;;;;;;14.30;1.73;;;21.30;67.80;;;;;;10352859;28;20065;-39
2022/10/02 18:44:09;;;;;;;16.40;1.55;;;21.50;65.70;;;;;;10362929;28;20454;-40
2022/10/02 18:49:24;;;;;;;10.02;1.23;;;21.00;70.20;;;;;;10357871;28;20049;-40
2022/10/02 18:54:40;;;;;;;16.35;1.98;;;21.70;66.40;;;;;;10373990;28;20045;-39
2022/10/02 18:59:54;;;;;;;11.18;1.58;;;20.40;69.70;;;;;;10357382;28;20046;-41
2022/10/02 19:05:12;;;;;;;9.02;1.67;;;20.70;70.90;;;;;;10368371;28;20049;-42
2022/10/02 19:10:27;;;;;;;14.30;3.05;;;20.70;70.10;;;;;;10376347;28;20615;-38
2022/10/02 19:15:33;;;;;;;24.52;3.55;;;20.50;72.00;;;;;;10353930;28;20093;-38
2022/10/02 19:20:48;;;;;;;7.13;1.40;;;20.40;72.90;;;;;;10353777;28;20067;-38
2022/10/02 19:25:51;;;;;;;11.80;1.67;;;20.10;73.10;;;;;;10356071;28;20125;-40
2022/10/02 19:30:58;;;;;;;20.83;2.47;;;20.40;73.00;;;;;;10356007;28;20133;-41
2022/10/02 19:36:05;;;;;;;21.67;1.88;;;20.50;73.60;;;;;;10361803;28;20081;-39
2022/10/02 19:41:10;;;;;;;35.33;2.70;;;20.60;72.30;;;;;;10353571;28;20129;-39
2022/10/02 19:46:18;;;;;;;18.25;1.88;;;20.60;73.10;;;;;;10370843;28;20556;-39
2022/10/02 19:51:20;;;;;;;23.10;1.88;;;20.70;72.20;;;;;;10353603;28;20066;-38
2022/10/02 19:56:28;;;;;;;23.15;1.92;;;20.70;72.90;;;;;;10354720;28;20616;-40
2022/10/02 20:01:41;;;;;;;20.17;2.17;;;20.90;72.30;;;;;;10342818;28;20157;-40
2022/10/02 20:06:46;;;;;;;20.83;2.08;;;20.70;72.40;;;;;;10358933;28;20078;-42
2022/10/02 20:11:51;;;;;;;18.15;3.67;;;20.70;72.20;;;;;;10348662;28;20057;-41
2022/10/02 20:22:23;;;;;;;16.05;1.92;;;20.70;71.80;;;;;;10356634;28;20054;-39
2022/10/02 20:27:34;;;;;;;21.92;2.05;;;20.70;71.70;;;;;;10367916;28;20042;-38
2022/10/02 20:32:42;;;;;;;9.75;1.05;;;21.00;70.10;;;;;;10360388;28;20061;-41
2022/10/02 20:37:46;;;;;;;14.88;2.00;;;20.70;71.90;;;;;;10361789;28;20150;-39
2022/10/02 20:42:53;;;;;;;10.55;1.38;;;21.30;69.40;;;;;;10365319;28;20108;-43
2022/10/02 20:48:29;;;;;;;11.43;1.63;;;21.10;69.60;;;;;;10355041;28;20049;-40
2022/10/02 20:54:24;;;;;;;10.70;1.25;;;20.60;72.10;;;;;;10346478;28;20161;-39
2022/10/02 21:00:01;;;;;;;14.50;1.60;;;21.00;70.70;;;;;;10354545;28;20069;-42
2022/10/02 21:05:46;;;;;;;15.70;2.28;;;20.20;71.40;;;;;;10358868;28;20672;-40
2022/10/02 21:11:12;;;;;;;18.08;1.48;;;20.60;71.30;;;;;;10354601;28;20061;-38
2022/10/02 21:16:41;;;;;;;16.42;1.50;;;20.90;70.70;;;;;;10369410;28;20050;-41
2022/10/02 21:22:21;;;;;;;9.10;1.27;;;21.10;69.90;;;;;;10351068;28;20132;-40
2022/10/02 21:28:02;;;;;;;12.45;1.58;;;19.80;74.70;;;;;;10314531;28;20077;-41
2022/10/02 21:33:14;;;;;;;10.30;1.25;;;20.20;71.70;;;;;;10358237;28;20085;-40
2022/10/02 21:38:50;;;;;;;6.25;0.85;;;20.40;68.10;;;;;;10352401;28;20045;-42
2022/10/02 21:44:22;;;;;;;12.20;1.17;;;20.30;71.60;;;;;;10347752;28;20499;-38
2022/10/02 21:49:53;;;;;;;6.82;0.80;;;20.80;70.20;;;;;;10361029;28;20037;-39
2022/10/02 21:55:24;;;;;;;8.90;1.00;;;21.00;69.00;;;;;;10361469;28;20057;-41
2022/10/02 22:00:27;;;;;;;5.40;0.70;;;20.70;70.10;;;;;;10354831;28;20503;-39
2022/10/02 22:06:05;;;;;;;4.93;0.90;;;21.00;69.10;;;;;;10373428;28;20097;-40
2022/10/02 22:11:20;;;;;;;6.22;0.70;;;20.80;69.50;;;;;;10343079;28;20487;-38
2022/10/02 22:16:35;;;;;;;9.52;1.00;;;21.00;68.90;;;;;;10365854;28;20534;-39
2022/10/02 22:21:55;;;;;;;7.22;0.82;;;21.10;68.70;;;;;;10362627;28;20100;-43
2022/10/02 22:27:14;;;;;;;11.18;1.00;;;21.10;68.40;;;;;;10374342;28;20157;-41
2022/10/02 22:38:11;;;;;;;7.70;0.85;;;21.10;68.30;;;;;;10375138;28;20450;-37
2022/10/02 22:43:20;;;;;;;;;;;20.90;68.80;;;;;;10369190;28;20069;-40
2022/10/02 22:48:30;;;;;;;5.40;0.90;;;21.10;68.30;;;;;;10363695;28;20003;-39
2022/10/02 22:53:38;;;;;;;8.15;1.13;;;21.10;68.00;;;;;;10367838;28;20058;-40
2022/10/02 22:58:47;;;;;;;10.10;0.90;;;20.90;68.60;;;;;;10353476;28;20579;-39
2022/10/02 23:03:54;;;;;;;4.28;0.82;;;21.00;68.40;;;;;;10358562;28;20041;-39
2022/10/02 23:09:01;;;;;;;12.60;2.55;;;21.00;68.10;;;;;;10356092;28;20132;-39
2022/10/02 23:14:14;;;;;;;5.55;0.80;;;21.00;68.00;;;;;;10354615;28;20042;-46
2022/10/02 23:19:22;;;;;;;8.23;1.10;;;20.90;68.40;;;;;;10372605;28;20537;-37
2022/10/02 23:24:30;;;;;;;10.18;1.20;;;20.90;68.30;;;;;;10368163;28;20049;-39
2022/10/02 23:29:45;;;;;;;7.03;1.02;;;20.20;69.70;;;;;;10379799;28;20058;-40
2022/10/02 23:34:57;;;;;;;7.43;0.52;;;20.80;68.70;;;;;;10359775;28;20137;-39
2022/10/02 23:40:15;;;;;;;6.10;0.82;;;20.80;68.70;;;;;;10376642;28;20046;-42
2022/10/02 23:45:25;;;;;;;6.43;1.15;;;20.70;67.70;;;;;;10368324;28;20077;-39
2022/10/02 23:50:36;;;;;;;9.20;1.02;;;20.80;68.50;;;;;;10352736;28;20478;-40
2022/10/02 23:55:50;;;;;;;7.45;1.20;;;20.80;68.70;;;;;;10362991;28;20074;-46
